Del Rio, Laughlin Air Force Base (KDLF)

NameLaughlin Air Force Base
CityDel Rio
CountryUnited States
ICAOKDLF
IATADLF
Altitude330 m
CoordinatesGoogle Map
Live Air TrafficLiveATC.net
METARKDLF 181656Z AUTO 13011KT 10SM FEW190 13/M07 A3019 RMK AO2 SLP223 T01251070 RVRNO
2019-02-18 16:56:00 Wind: East-Southeast (130°) 5.66 m/s - Visibility: 16093.4 m - Temperature: 13 °C - Dew point: -7 °C - Humidity: 24.4% - Pressure: 1022.35 hPa

Sorry, no flights used the airport in this database.